Forside
METAR-TAF:

METAR-TAF

Lufthavne :

Nouakchott, Mauretanien

Breddekreds: 18-18-36N, længdekreds: 015-58-11W, højde: 3 m

Aktuelle vejr

Denne rapport blev lavet for 36 minutter siden, kl. 18:30 UTC
Vind 17 kt fra nordnordvest
Temperatur 28°C
Fugtighed 58%
Tryk 1007 hPa
Sigt: 6000 m

METAR: GQNO 221830Z 33017KT 6000 NSC 28/19 Q1007 NOSIG

Tid: 19:06 (19:06 UTC)

Vejrudsigter

Denne rapport blev lavet for 2 timer og 6 minutter siden, kl. 17:00 UTC
Foreløbig gælder fra 22 på 18 UTC til 23 på 24 UTC
Vind 15 kt fra nordvest
Sigt: 6000 m
ændring
fra 22 på 20 UTC til 22 på 23 UTC
Vind 12 kt fra vest

TAF: GQNO 221700Z 2218/2324 32015KT 6000 NSC BECMG 2220/2223 26012KT

Vejrobservationer og prognoser fra mere end 4000 lufthavne (METAR og TAF).

De gule og røde prikker repræsenterer de meteorologiske stationer.

Flyt musen over at se navnet på stationen.

Så klik over at se vejr observationer og prognoser.

At skifte det kort: Klik på de grønne knapper med et sort kors for at zoome ind; på den grønne knap med en bindestreg for at zoome ud; eller på de grønne pile for tilstødende kort.


METAR-TAF: